sensor_id;sensor_type;location;lat;lon;timestamp;pressure;altitude;pressure_sealevel;temperature;humidity
43364;BME280;40636;52.424;-1.948;2023-05-10T00:00:01;99463.03;;;7.75;100.00
43364;BME280;40636;52.424;-1.948;2023-05-10T00:02:27;99468.75;;;7.74;100.00
43364;BME280;40636;52.424;-1.948;2023-05-10T00:04:54;99464.59;;;7.71;100.00
43364;BME280;40636;52.424;-1.948;2023-05-10T00:07:21;99465.94;;;7.69;100.00
43364;BME280;40636;52.424;-1.948;2023-05-10T00:09:47;99471.63;;;7.67;100.00
43364;BME280;40636;52.424;-1.948;2023-05-10T00:12:14;99470.31;;;7.70;100.00
43364;BME280;40636;52.424;-1.948;2023-05-10T00:14:41;99462.50;;;7.61;100.00
43364;BME280;40636;52.424;-1.948;2023-05-10T00:17:07;99461.22;;;7.64;100.00
43364;BME280;40636;52.424;-1.948;2023-05-10T00:19:34;99467.50;;;7.65;100.00
43364;BME280;40636;52.424;-1.948;2023-05-10T00:22:01;99473.06;;;7.58;100.00
43364;BME280;40636;52.424;-1.948;2023-05-10T00:24:27;99468.44;;;7.58;100.00
43364;BME280;40636;52.424;-1.948;2023-05-10T00:26:54;99467.88;;;7.56;100.00
43364;BME280;40636;52.424;-1.948;2023-05-10T00:29:21;99460.50;;;7.57;100.00
43364;BME280;40636;52.424;-1.948;2023-05-10T00:31:47;99466.69;;;7.52;100.00
43364;BME280;40636;52.424;-1.948;2023-05-10T00:34:14;99462.31;;;7.51;100.00
43364;BME280;40636;52.424;-1.948;2023-05-10T00:36:41;99455.19;;;7.50;100.00
43364;BME280;40636;52.424;-1.948;2023-05-10T00:39:07;99448.91;;;7.50;100.00
43364;BME280;40636;52.424;-1.948;2023-05-10T00:41:34;99456.16;;;7.44;100.00
43364;BME280;40636;52.424;-1.948;2023-05-10T00:44:01;99456.06;;;7.39;100.00
43364;BME280;40636;52.424;-1.948;2023-05-10T00:46:28;99457.59;;;7.35;100.00
43364;BME280;40636;52.424;-1.948;2023-05-10T00:48:55;99454.31;;;7.33;100.00
43364;BME280;40636;52.424;-1.948;2023-05-10T00:51:22;99461.41;;;7.34;100.00
43364;BME280;40636;52.424;-1.948;2023-05-10T00:53:49;99452.66;;;7.32;100.00
43364;BME280;40636;52.424;-1.948;2023-05-10T00:56:17;99453.22;;;7.34;100.00
43364;BME280;40636;52.424;-1.948;2023-05-10T00:58:44;99451.47;;;7.28;100.00
43364;BME280;40636;52.424;-1.948;2023-05-10T01:01:11;99459.03;;;7.26;100.00
43364;BME280;40636;52.424;-1.948;2023-05-10T01:03:39;99456.94;;;7.28;100.00
43364;BME280;40636;52.424;-1.948;2023-05-10T01:06:06;99453.50;;;7.21;100.00
43364;BME280;40636;52.424;-1.948;2023-05-10T01:08:33;99452.09;;;7.18;100.00
43364;BME280;40636;52.424;-1.948;2023-05-10T01:11:00;99455.63;;;7.19;100.00
43364;BME280;40636;52.424;-1.948;2023-05-10T01:13:33;99451.25;;;7.18;100.00
43364;BME280;40636;52.424;-1.948;2023-05-10T01:16:01;99450.09;;;7.14;100.00
43364;BME280;40636;52.424;-1.948;2023-05-10T01:18:30;99459.56;;;7.11;100.00
43364;BME280;40636;52.424;-1.948;2023-05-10T01:34:24;99461.00;;;6.90;100.00
43364;BME280;40636;52.424;-1.948;2023-05-10T01:37:07;99461.50;;;6.87;100.00
43364;BME280;40636;52.424;-1.948;2023-05-10T01:39:45;99459.50;;;6.82;100.00
43364;BME280;40636;52.424;-1.948;2023-05-10T01:42:26;99457.47;;;6.78;100.00
43364;BME280;40636;52.424;-1.948;2023-05-10T01:45:00;99453.44;;;6.80;100.00
43364;BME280;40636;52.424;-1.948;2023-05-10T01:47:53;99462.22;;;6.71;100.00
43364;BME280;40636;52.424;-1.948;2023-05-10T01:50:27;99456.75;;;6.71;100.00
43364;BME280;40636;52.424;-1.948;2023-05-10T01:52:58;99460.66;;;6.63;100.00
43364;BME280;40636;52.424;-1.948;2023-05-10T01:55:30;99458.41;;;6.72;100.00
43364;BME280;40636;52.424;-1.948;2023-05-10T01:58:10;99463.03;;;6.59;100.00
43364;BME280;40636;52.424;-1.948;2023-05-10T02:00:41;99456.88;;;6.64;100.00
43364;BME280;40636;52.424;-1.948;2023-05-10T02:03:10;99456.28;;;6.62;100.00
43364;BME280;40636;52.424;-1.948;2023-05-10T02:05:38;99455.44;;;6.61;100.00
43364;BME280;40636;52.424;-1.948;2023-05-10T02:08:07;99458.88;;;6.57;100.00
43364;BME280;40636;52.424;-1.948;2023-05-10T02:10:35;99466.00;;;6.58;100.00
43364;BME280;40636;52.424;-1.948;2023-05-10T02:13:03;99459.84;;;6.51;100.00
43364;BME280;40636;52.424;-1.948;2023-05-10T02:15:30;99457.56;;;6.48;100.00
43364;BME280;40636;52.424;-1.948;2023-05-10T02:17:59;99454.03;;;6.47;100.00
43364;BME280;40636;52.424;-1.948;2023-05-10T02:20:26;99465.97;;;6.34;100.00
43364;BME280;40636;52.424;-1.948;2023-05-10T02:22:54;99458.63;;;6.35;100.00
43364;BME280;40636;52.424;-1.948;2023-05-10T02:25:23;99455.31;;;6.33;100.00
43364;BME280;40636;52.424;-1.948;2023-05-10T02:27:54;99456.72;;;6.35;100.00
43364;BME280;40636;52.424;-1.948;2023-05-10T02:30:22;99458.63;;;6.35;100.00
43364;BME280;40636;52.424;-1.948;2023-05-10T02:32:50;99460.88;;;6.38;100.00
43364;BME280;40636;52.424;-1.948;2023-05-10T02:35:18;99458.63;;;6.35;100.00
43364;BME280;40636;52.424;-1.948;2023-05-10T02:37:46;99455.06;;;6.34;100.00
43364;BME280;40636;52.424;-1.948;2023-05-10T02:40:15;99463.38;;;6.28;100.00
43364;BME280;40636;52.424;-1.948;2023-05-10T02:42:45;99464.66;;;6.25;100.00
43364;BME280;40636;52.424;-1.948;2023-05-10T02:45:29;99477.91;;;6.22;100.00
43364;BME280;40636;52.424;-1.948;2023-05-10T02:47:56;99473.88;;;6.13;100.00
43364;BME280;40636;52.424;-1.948;2023-05-10T02:50:27;99469.03;;;6.15;100.00
43364;BME280;40636;52.424;-1.948;2023-05-10T02:53:00;99470.22;;;6.19;100.00
43364;BME280;40636;52.424;-1.948;2023-05-10T02:55:33;99479.47;;;6.18;100.00
43364;BME280;40636;52.424;-1.948;2023-05-10T02:58:02;99480.28;;;6.18;100.00
43364;BME280;40636;52.424;-1.948;2023-05-10T03:00:29;99482.53;;;6.09;100.00
43364;BME280;40636;52.424;-1.948;2023-05-10T03:02:56;99482.53;;;6.09;100.00
43364;BME280;40636;52.424;-1.948;2023-05-10T03:05:23;99481.31;;;6.05;100.00
43364;BME280;40636;52.424;-1.948;2023-05-10T03:07:50;99494.47;;;6.08;100.00
43364;BME280;40636;52.424;-1.948;2023-05-10T03:10:18;99476.78;;;5.99;100.00
43364;BME280;40636;52.424;-1.948;2023-05-10T03:13:06;99482.47;;;5.98;100.00
43364;BME280;40636;52.424;-1.948;2023-05-10T03:18:34;99480.00;;;5.96;100.00
43364;BME280;40636;52.424;-1.948;2023-05-10T03:21:07;99477.97;;;5.92;100.00
43364;BME280;40636;52.424;-1.948;2023-05-10T03:23:44;99478.47;;;6.00;100.00
43364;BME280;40636;52.424;-1.948;2023-05-10T03:26:17;99480.22;;;5.95;100.00
43364;BME280;40636;52.424;-1.948;2023-05-10T03:28:47;99477.09;;;5.91;100.00
43364;BME280;40636;52.424;-1.948;2023-05-10T03:31:15;99475.28;;;5.85;100.00
43364;BME280;40636;52.424;-1.948;2023-05-10T03:33:51;99476.59;;;5.82;100.00
43364;BME280;40636;52.424;-1.948;2023-05-10T03:36:19;99474.59;;;5.90;100.00
43364;BME280;40636;52.424;-1.948;2023-05-10T03:38:45;99478.38;;;5.89;100.00
43364;BME280;40636;52.424;-1.948;2023-05-10T03:41:12;99479.09;;;5.84;100.00
43364;BME280;40636;52.424;-1.948;2023-05-10T03:43:39;99476.97;;;5.86;100.00
43364;BME280;40636;52.424;-1.948;2023-05-10T03:46:07;99481.66;;;5.79;100.00
43364;BME280;40636;52.424;-1.948;2023-05-10T03:48:33;99484.78;;;5.82;100.00
43364;BME280;40636;52.424;-1.948;2023-05-10T03:51:01;99491.28;;;5.81;100.00
43364;BME280;40636;52.424;-1.948;2023-05-10T03:53:28;99488.63;;;5.75;100.00
43364;BME280;40636;52.424;-1.948;2023-05-10T03:55:55;99492.19;;;5.75;100.00
43364;BME280;40636;52.424;-1.948;2023-05-10T03:58:22;99489.25;;;5.77;100.00
43364;BME280;40636;52.424;-1.948;2023-05-10T04:00:48;99490.16;;;5.71;100.00
43364;BME280;40636;52.424;-1.948;2023-05-10T04:03:15;99495.16;;;5.74;100.00
43364;BME280;40636;52.424;-1.948;2023-05-10T04:05:42;99494.41;;;5.67;100.00
43364;BME280;40636;52.424;-1.948;2023-05-10T04:08:09;99496.06;;;5.68;100.00
43364;BME280;40636;52.424;-1.948;2023-05-10T04:10:35;99497.25;;;5.72;100.00
43364;BME280;40636;52.424;-1.948;2023-05-10T04:13:02;99491.66;;;5.67;100.00
43364;BME280;40636;52.424;-1.948;2023-05-10T04:15:29;99488.94;;;5.67;100.00
43364;BME280;40636;52.424;-1.948;2023-05-10T04:17:55;99489.88;;;5.60;100.00
43364;BME280;40636;52.424;-1.948;2023-05-10T04:20:22;99496.38;;;5.59;100.00
43364;BME280;40636;52.424;-1.948;2023-05-10T04:22:49;99506.78;;;5.63;100.00
43364;BME280;40636;52.424;-1.948;2023-05-10T04:25:15;99503.34;;;5.55;100.00
43364;BME280;40636;52.424;-1.948;2023-05-10T04:27:42;99504.69;;;5.65;100.00
43364;BME280;40636;52.424;-1.948;2023-05-10T04:30:09;99511.56;;;5.67;100.00
43364;BME280;40636;52.424;-1.948;2023-05-10T04:32:36;99499.84;;;5.67;100.00
43364;BME280;40636;52.424;-1.948;2023-05-10T04:35:03;99506.72;;;5.69;100.00
43364;BME280;40636;52.424;-1.948;2023-05-10T04:37:31;99505.06;;;5.68;100.00
43364;BME280;40636;52.424;-1.948;2023-05-10T04:39:57;99506.50;;;5.71;100.00
43364;BME280;40636;52.424;-1.948;2023-05-10T04:42:26;99506.50;;;5.71;100.00
43364;BME280;40636;52.424;-1.948;2023-05-10T04:44:52;99508.31;;;5.77;100.00
43364;BME280;40636;52.424;-1.948;2023-05-10T04:47:19;99509.28;;;5.82;100.00
43364;BME280;40636;52.424;-1.948;2023-05-10T04:49:46;99518.56;;;5.93;100.00
43364;BME280;40636;52.424;-1.948;2023-05-10T04:52:12;99517.28;;;5.96;100.00
43364;BME280;40636;52.424;-1.948;2023-05-10T04:54:40;99515.78;;;6.00;100.00
43364;BME280;40636;52.424;-1.948;2023-05-10T04:57:07;99513.31;;;6.10;100.00
43364;BME280;40636;52.424;-1.948;2023-05-10T04:59:35;99519.63;;;6.22;100.00
43364;BME280;40636;52.424;-1.948;2023-05-10T05:02:02;99520.09;;;6.31;100.00
43364;BME280;40636;52.424;-1.948;2023-05-10T05:04:30;99521.53;;;6.33;100.00
43364;BME280;40636;52.424;-1.948;2023-05-10T05:06:57;99521.78;;;6.44;100.00
43364;BME280;40636;52.424;-1.948;2023-05-10T05:09:23;99518.28;;;6.55;100.00
43364;BME280;40636;52.424;-1.948;2023-05-10T05:11:50;99518.06;;;6.68;100.00
43364;BME280;40636;52.424;-1.948;2023-05-10T05:14:17;99514.97;;;6.76;100.00
43364;BME280;40636;52.424;-1.948;2023-05-10T05:16:43;99517.69;;;6.88;100.00
43364;BME280;40636;52.424;-1.948;2023-05-10T05:19:10;99516.53;;;6.96;100.00
43364;BME280;40636;52.424;-1.948;2023-05-10T05:21:37;99515.44;;;7.08;100.00
43364;BME280;40636;52.424;-1.948;2023-05-10T05:24:04;99530.72;;;7.21;100.00
43364;BME280;40636;52.424;-1.948;2023-05-10T05:26:30;99529.78;;;7.27;100.00
43364;BME280;40636;52.424;-1.948;2023-05-10T05:28:57;99524.66;;;7.31;100.00
43364;BME280;40636;52.424;-1.948;2023-05-10T05:31:24;99521.47;;;7.34;100.00
43364;BME280;40636;52.424;-1.948;2023-05-10T05:33:50;99525.25;;;7.33;100.00
43364;BME280;40636;52.424;-1.948;2023-05-10T05:36:17;99527.53;;;7.36;100.00
43364;BME280;40636;52.424;-1.948;2023-05-10T05:38:44;99536.03;;;7.40;100.00
43364;BME280;40636;52.424;-1.948;2023-05-10T05:41:11;99539.72;;;7.45;100.00
43364;BME280;40636;52.424;-1.948;2023-05-10T05:43:38;99540.78;;;7.44;100.00
43364;BME280;40636;52.424;-1.948;2023-05-10T05:46:05;99540.41;;;7.52;100.00
43364;BME280;40636;52.424;-1.948;2023-05-10T05:48:32;99545.84;;;7.64;100.00
43364;BME280;40636;52.424;-1.948;2023-05-10T05:50:58;99540.69;;;7.79;100.00
43364;BME280;40636;52.424;-1.948;2023-05-10T05:53:25;99547.78;;;7.92;100.00
43364;BME280;40636;52.424;-1.948;2023-05-10T05:58:20;99542.19;;;8.27;100.00
43364;BME280;40636;52.424;-1.948;2023-05-10T06:00:47;99545.22;;;8.43;100.00
43364;BME280;40636;52.424;-1.948;2023-05-10T06:03:13;99542.72;;;8.58;100.00
43364;BME280;40636;52.424;-1.948;2023-05-10T06:05:40;99550.38;;;8.73;100.00
43364;BME280;40636;52.424;-1.948;2023-05-10T06:08:07;99550.88;;;8.86;100.00
43364;BME280;40636;52.424;-1.948;2023-05-10T06:10:33;99548.03;;;8.98;100.00
43364;BME280;40636;52.424;-1.948;2023-05-10T06:13:00;99558.31;;;9.08;100.00
43364;BME280;40636;52.424;-1.948;2023-05-10T06:15:27;99556.56;;;9.19;100.00
43364;BME280;40636;52.424;-1.948;2023-05-10T06:17:54;99557.28;;;9.31;100.00
43364;BME280;40636;52.424;-1.948;2023-05-10T06:20:21;99539.66;;;9.44;100.00
43364;BME280;40636;52.424;-1.948;2023-05-10T06:22:47;99555.72;;;9.57;100.00
43364;BME280;40636;52.424;-1.948;2023-05-10T06:25:14;99557.28;;;9.70;100.00
43364;BME280;40636;52.424;-1.948;2023-05-10T06:27:41;99560.78;;;9.87;100.00
43364;BME280;40636;52.424;-1.948;2023-05-10T06:30:08;99562.53;;;9.98;100.00
43364;BME280;40636;52.424;-1.948;2023-05-10T06:32:39;99557.59;;;9.95;100.00
43364;BME280;40636;52.424;-1.948;2023-05-10T06:35:06;99553.72;;;9.91;100.00
43364;BME280;40636;52.424;-1.948;2023-05-10T06:37:33;99561.59;;;9.87;100.00
43364;BME280;40636;52.424;-1.948;2023-05-10T06:40:00;99552.16;;;10.00;100.00
43364;BME280;40636;52.424;-1.948;2023-05-10T06:42:28;99560.25;;;10.12;100.00
43364;BME280;40636;52.424;-1.948;2023-05-10T06:44:54;99566.75;;;10.28;100.00
43364;BME280;40636;52.424;-1.948;2023-05-10T06:47:21;99567.50;;;10.45;100.00
43364;BME280;40636;52.424;-1.948;2023-05-10T06:49:48;99567.59;;;10.55;100.00
43364;BME280;40636;52.424;-1.948;2023-05-10T06:52:14;99574.00;;;10.66;100.00
43364;BME280;40636;52.424;-1.948;2023-05-10T06:54:41;99571.63;;;10.80;100.00
43364;BME280;40636;52.424;-1.948;2023-05-10T06:57:08;99570.09;;;10.94;100.00
43364;BME280;40636;52.424;-1.948;2023-05-10T06:59:55;99568.63;;;11.13;100.00
43364;BME280;40636;52.424;-1.948;2023-05-10T07:02:22;99570.34;;;11.25;100.00
43364;BME280;40636;52.424;-1.948;2023-05-10T07:04:49;99563.84;;;11.36;100.00
43364;BME280;40636;52.424;-1.948;2023-05-10T07:07:18;99570.47;;;11.40;100.00
43364;BME280;40636;52.424;-1.948;2023-05-10T07:09:45;99564.75;;;11.52;100.00
43364;BME280;40636;52.424;-1.948;2023-05-10T07:12:12;99564.47;;;11.53;100.00
43364;BME280;40636;52.424;-1.948;2023-05-10T07:14:41;99564.75;;;11.52;100.00
43364;BME280;40636;52.424;-1.948;2023-05-10T07:17:08;99569.22;;;11.63;100.00
43364;BME280;40636;52.424;-1.948;2023-05-10T07:19:36;99572.78;;;11.63;100.00
43364;BME280;40636;52.424;-1.948;2023-05-10T07:22:03;99570.25;;;11.52;100.00
43364;BME280;40636;52.424;-1.948;2023-05-10T07:24:29;99573.16;;;11.35;100.00
43364;BME280;40636;52.424;-1.948;2023-05-10T07:26:57;99569.28;;;11.31;100.00
43364;BME280;40636;52.424;-1.948;2023-05-10T07:29:24;99578.47;;;11.52;100.00
43364;BME280;40636;52.424;-1.948;2023-05-10T07:31:52;99578.34;;;11.74;100.00
43364;BME280;40636;52.424;-1.948;2023-05-10T07:34:18;99574.63;;;11.95;100.00
43364;BME280;40636;52.424;-1.948;2023-05-10T07:36:45;99572.22;;;12.14;100.00
43364;BME280;40636;52.424;-1.948;2023-05-10T07:39:13;99573.59;;;12.22;100.00
43364;BME280;40636;52.424;-1.948;2023-05-10T07:41:51;99574.16;;;12.29;100.00
43364;BME280;40636;52.424;-1.948;2023-05-10T07:44:18;99577.75;;;12.29;100.00
43364;BME280;40636;52.424;-1.948;2023-05-10T07:46:47;99565.63;;;12.20;100.00
43364;BME280;40636;52.424;-1.948;2023-05-10T07:49:14;99574.16;;;12.18;100.00
43364;BME280;40636;52.424;-1.948;2023-05-10T07:51:41;99570.88;;;12.27;100.00
43364;BME280;40636;52.424;-1.948;2023-05-10T07:54:08;99574.47;;;12.37;100.00
43364;BME280;40636;52.424;-1.948;2023-05-10T07:56:35;99573.97;;;12.61;100.00
43364;BME280;40636;52.424;-1.948;2023-05-10T07:59:03;99568.75;;;12.80;100.00
43364;BME280;40636;52.424;-1.948;2023-05-10T08:01:32;99575.38;;;12.99;100.00
43364;BME280;40636;52.424;-1.948;2023-05-10T08:03:59;99572.91;;;13.28;100.00
43364;BME280;40636;52.424;-1.948;2023-05-10T08:06:26;99577.03;;;13.41;100.00
43364;BME280;40636;52.424;-1.948;2023-05-10T08:08:54;99580.06;;;13.24;100.00
43364;BME280;40636;52.424;-1.948;2023-05-10T08:11:22;99575.38;;;13.09;100.00
43364;BME280;40636;52.424;-1.948;2023-05-10T08:13:50;99575.63;;;13.08;100.00
43364;BME280;40636;52.424;-1.948;2023-05-10T08:16:17;99578.66;;;13.06;100.00
43364;BME280;40636;52.424;-1.948;2023-05-10T08:18:45;99585.56;;;13.14;100.00
43364;BME280;40636;52.424;-1.948;2023-05-10T08:21:14;99578.13;;;13.04;100.00
43364;BME280;40636;52.424;-1.948;2023-05-10T08:23:41;99586.66;;;12.92;100.00
43364;BME280;40636;52.424;-1.948;2023-05-10T08:26:07;99582.25;;;12.91;100.00
43364;BME280;40636;52.424;-1.948;2023-05-10T08:28:34;99580.88;;;13.14;100.00
43364;BME280;40636;52.424;-1.948;2023-05-10T08:31:01;99580.59;;;13.26;100.00
43364;BME280;40636;52.424;-1.948;2023-05-10T08:33:28;99578.13;;;13.40;100.00
43364;BME280;40636;52.424;-1.948;2023-05-10T08:35:54;99585.28;;;13.41;100.00
43364;BME280;40636;52.424;-1.948;2023-05-10T08:38:21;99584.16;;;13.47;100.00
43364;BME280;40636;52.424;-1.948;2023-05-10T08:40:49;99584.44;;;13.51;100.00
43364;BME280;40636;52.424;-1.948;2023-05-10T08:43:17;99590.78;;;13.51;100.00
43364;BME280;40636;52.424;-1.948;2023-05-10T08:45:45;99589.69;;;13.37;100.00
43364;BME280;40636;52.424;-1.948;2023-05-10T08:48:14;99593.56;;;13.31;100.00
43364;BME280;40636;52.424;-1.948;2023-05-10T08:50:42;99594.94;;;13.38;100.00
43364;BME280;40636;52.424;-1.948;2023-05-10T08:53:13;99594.09;;;13.38;100.00
43364;BME280;40636;52.424;-1.948;2023-05-10T08:55:42;99595.22;;;13.37;100.00
43364;BME280;40636;52.424;-1.948;2023-05-10T08:58:10;99597.09;;;13.52;100.00
43364;BME280;40636;52.424;-1.948;2023-05-10T09:00:37;99605.41;;;13.41;100.00
43364;BME280;40636;52.424;-1.948;2023-05-10T09:03:05;99592.41;;;13.57;100.00
43364;BME280;40636;52.424;-1.948;2023-05-10T09:05:33;99599.56;;;13.68;100.00
43364;BME280;40636;52.424;-1.948;2023-05-10T09:07:59;99594.31;;;13.67;100.00
43364;BME280;40636;52.424;-1.948;2023-05-10T09:10:30;99587.72;;;13.68;100.00
43364;BME280;40636;52.424;-1.948;2023-05-10T09:12:57;99590.16;;;13.75;100.00
43364;BME280;40636;52.424;-1.948;2023-05-10T09:15:25;99588.22;;;13.75;100.00
43364;BME280;40636;52.424;-1.948;2023-05-10T09:17:52;99579.09;;;13.85;100.00
43364;BME280;40636;52.424;-1.948;2023-05-10T09:20:21;99583.19;;;13.98;100.00
43364;BME280;40636;52.424;-1.948;2023-05-10T09:22:48;99591.16;;;14.09;100.00
43364;BME280;40636;52.424;-1.948;2023-05-10T09:25:16;99591.66;;;14.16;100.00
43364;BME280;40636;52.424;-1.948;2023-05-10T09:27:47;99589.09;;;14.35;100.00
43364;BME280;40636;52.424;-1.948;2023-05-10T09:30:27;99582.13;;;14.43;100.00
43364;BME280;40636;52.424;-1.948;2023-05-10T09:32:56;99589.31;;;14.49;100.00
43364;BME280;40636;52.424;-1.948;2023-05-10T09:35:28;99593.34;;;14.67;100.00
43364;BME280;40636;52.424;-1.948;2023-05-10T09:38:00;99598.59;;;14.68;100.00
43364;BME280;40636;52.424;-1.948;2023-05-10T09:40:29;99586.72;;;14.68;100.00
43364;BME280;40636;52.424;-1.948;2023-05-10T09:43:06;99598.06;;;14.61;100.00
43364;BME280;40636;52.424;-1.948;2023-05-10T09:45:34;99595.94;;;14.43;100.00
43364;BME280;40636;52.424;-1.948;2023-05-10T09:48:04;99597.56;;;14.54;100.00
43364;BME280;40636;52.424;-1.948;2023-05-10T09:50:32;99594.63;;;14.35;100.00
43364;BME280;40636;52.424;-1.948;2023-05-10T09:53:02;99596.50;;;14.45;100.00
43364;BME280;40636;52.424;-1.948;2023-05-10T09:58:02;99587.34;;;14.94;100.00
43364;BME280;40636;52.424;-1.948;2023-05-10T10:00:38;99593.03;;;15.08;100.00
43364;BME280;40636;52.424;-1.948;2023-05-10T10:03:07;99589.91;;;15.19;100.00
43364;BME280;40636;52.424;-1.948;2023-05-10T10:05:40;99588.56;;;15.12;100.00
43364;BME280;40636;52.424;-1.948;2023-05-10T10:08:07;99594.34;;;15.15;100.00
43364;BME280;40636;52.424;-1.948;2023-05-10T10:10:34;99589.94;;;15.14;100.00
43364;BME280;40636;52.424;-1.948;2023-05-10T10:13:01;99576.34;;;15.23;100.00
43364;BME280;40636;52.424;-1.948;2023-05-10T10:15:29;99574.72;;;15.17;100.00
43364;BME280;40636;52.424;-1.948;2023-05-10T10:17:55;99579.00;;;15.04;100.00
43364;BME280;40636;52.424;-1.948;2023-05-10T10:20:23;99584.97;;;14.82;100.00
43364;BME280;40636;52.424;-1.948;2023-05-10T10:22:50;99579.06;;;14.55;100.00
43364;BME280;40636;52.424;-1.948;2023-05-10T10:25:18;99581.28;;;14.47;100.00
43364;BME280;40636;52.424;-1.948;2023-05-10T10:28:30;99583.97;;;14.13;100.00
43364;BME280;40636;52.424;-1.948;2023-05-10T10:30:44;99586.25;;;13.91;100.00
43364;BME280;40636;52.424;-1.948;2023-05-10T10:33:30;99587.41;;;13.75;100.00
43364;BME280;40636;52.424;-1.948;2023-05-10T10:36:02;99593.00;;;13.49;100.00
43364;BME280;40636;52.424;-1.948;2023-05-10T10:38:58;99596.84;;;13.48;100.00
43364;BME280;40636;52.424;-1.948;2023-05-10T10:41:37;99587.22;;;13.45;100.00
43364;BME280;40636;52.424;-1.948;2023-05-10T10:49:45;99579.59;;;14.02;100.00
43364;BME280;40636;52.424;-1.948;2023-05-10T10:52:15;99580.38;;;14.13;100.00
43364;BME280;40636;52.424;-1.948;2023-05-10T10:54:50;99583.09;;;14.23;100.00
43364;BME280;40636;52.424;-1.948;2023-05-10T10:57:18;99587.25;;;14.15;100.00
43364;BME280;40636;52.424;-1.948;2023-05-10T10:59:45;99583.44;;;14.01;100.00
43364;BME280;40636;52.424;-1.948;2023-05-10T11:05:41;99585.22;;;13.61;100.00
43364;BME280;40636;52.424;-1.948;2023-05-10T11:13:32;99574.75;;;13.68;100.00
43364;BME280;40636;52.424;-1.948;2023-05-10T11:16:16;99573.31;;;13.76;100.00
43364;BME280;40636;52.424;-1.948;2023-05-10T11:19:03;99572.47;;;13.91;100.00
43364;BME280;40636;52.424;-1.948;2023-05-10T11:21:31;99579.81;;;14.11;100.00
43364;BME280;40636;52.424;-1.948;2023-05-10T11:24:00;99574.84;;;14.13;100.00
43364;BME280;40636;52.424;-1.948;2023-05-10T11:26:32;99568.00;;;14.05;100.00
43364;BME280;40636;52.424;-1.948;2023-05-10T11:29:00;99560.78;;;14.14;100.00
43364;BME280;40636;52.424;-1.948;2023-05-10T11:31:28;99563.19;;;14.26;100.00
43364;BME280;40636;52.424;-1.948;2023-05-10T11:33:57;99566.22;;;14.25;100.00
43364;BME280;40636;52.424;-1.948;2023-05-10T11:36:28;99565.94;;;14.31;100.00
43364;BME280;40636;52.424;-1.948;2023-05-10T11:38:56;99559.25;;;14.37;100.00
43364;BME280;40636;52.424;-1.948;2023-05-10T11:41:24;99561.16;;;14.42;100.00
43364;BME280;40636;52.424;-1.948;2023-05-10T11:43:53;99554.91;;;14.70;100.00
43364;BME280;40636;52.424;-1.948;2023-05-10T11:46:22;99555.22;;;15.03;100.00
43364;BME280;40636;52.424;-1.948;2023-05-10T11:48:51;99550.78;;;15.36;100.00
43364;BME280;40636;52.424;-1.948;2023-05-10T11:51:22;99548.47;;;15.72;100.00
43364;BME280;40636;52.424;-1.948;2023-05-10T11:53:52;99543.75;;;15.73;100.00
43364;BME280;40636;52.424;-1.948;2023-05-10T11:56:19;99545.25;;;15.60;100.00
43364;BME280;40636;52.424;-1.948;2023-05-10T11:58:55;99546.53;;;15.44;100.00
43364;BME280;40636;52.424;-1.948;2023-05-10T12:01:26;99539.63;;;15.17;100.00
43364;BME280;40636;52.424;-1.948;2023-05-10T12:03:57;99545.53;;;15.06;100.00
43364;BME280;40636;52.424;-1.948;2023-05-10T12:06:32;99543.00;;;15.09;100.00
43364;BME280;40636;52.424;-1.948;2023-05-10T12:09:09;99546.69;;;15.00;100.00
43364;BME280;40636;52.424;-1.948;2023-05-10T12:11:37;99548.09;;;14.97;100.00
43364;BME280;40636;52.424;-1.948;2023-05-10T12:14:08;99540.38;;;14.94;100.00
43364;BME280;40636;52.424;-1.948;2023-05-10T12:16:35;99539.53;;;14.93;100.00
43364;BME280;40636;52.424;-1.948;2023-05-10T12:19:02;99541.38;;;15.08;100.00
43364;BME280;40636;52.424;-1.948;2023-05-10T12:21:29;99542.50;;;15.02;100.00
43364;BME280;40636;52.424;-1.948;2023-05-10T12:24:02;99538.19;;;14.91;100.00
43364;BME280;40636;52.424;-1.948;2023-05-10T12:26:29;99550.38;;;14.90;100.00
43364;BME280;40636;52.424;-1.948;2023-05-10T12:29:16;99555.13;;;15.13;100.00
43364;BME280;40636;52.424;-1.948;2023-05-10T12:31:57;99542.91;;;15.19;100.00
43364;BME280;40636;52.424;-1.948;2023-05-10T12:34:35;99551.03;;;15.35;100.00
43364;BME280;40636;52.424;-1.948;2023-05-10T12:37:03;99542.19;;;15.67;100.00
43364;BME280;40636;52.424;-1.948;2023-05-10T12:39:43;99538.38;;;16.06;100.00
43364;BME280;40636;52.424;-1.948;2023-05-10T12:42:11;99531.28;;;16.18;100.00
43364;BME280;40636;52.424;-1.948;2023-05-10T12:44:38;99530.69;;;16.21;100.00
43364;BME280;40636;52.424;-1.948;2023-05-10T12:47:05;99531.59;;;16.17;100.00
43364;BME280;40636;52.424;-1.948;2023-05-10T12:49:32;99531.28;;;16.37;100.00
43364;BME280;40636;52.424;-1.948;2023-05-10T12:52:00;99532.19;;;16.33;100.00
43364;BME280;40636;52.424;-1.948;2023-05-10T12:54:27;99526.50;;;16.43;100.00
43364;BME280;40636;52.424;-1.948;2023-05-10T12:56:54;99525.44;;;16.39;100.00
43364;BME280;40636;52.424;-1.948;2023-05-10T12:59:21;99536.44;;;16.44;100.00
43364;BME280;40636;52.424;-1.948;2023-05-10T13:01:47;99530.47;;;16.56;100.00
43364;BME280;40636;52.424;-1.948;2023-05-10T13:04:14;99523.03;;;16.89;100.00
43364;BME280;40636;52.424;-1.948;2023-05-10T13:06:41;99527.41;;;17.09;100.00
43364;BME280;40636;52.424;-1.948;2023-05-10T13:09:07;99523.75;;;17.27;100.00
43364;BME280;40636;52.424;-1.948;2023-05-10T13:11:34;99520.41;;;17.11;100.00
43364;BME280;40636;52.424;-1.948;2023-05-10T13:14:01;99516.41;;;17.04;100.00
43364;BME280;40636;52.424;-1.948;2023-05-10T13:16:29;99522.69;;;17.09;100.00
43364;BME280;40636;52.424;-1.948;2023-05-10T13:18:57;99518.56;;;17.07;100.00
43364;BME280;40636;52.424;-1.948;2023-05-10T13:21:24;99521.91;;;17.22;100.00
43364;BME280;40636;52.424;-1.948;2023-05-10T13:23:51;99518.59;;;17.20;100.00
43364;BME280;40636;52.424;-1.948;2023-05-10T13:26:18;99523.34;;;17.34;100.00
43364;BME280;40636;52.424;-1.948;2023-05-10T13:28:45;99530.69;;;17.11;100.00